sensor_id;sensor_type;location;lat;lon;timestamp;temperature;humidity
5210;DHT22;2624;48.048;11.706;2023-04-01T00:02:05;7.50;99.90
5210;DHT22;2624;48.048;11.706;2023-04-01T00:07:09;7.40;99.90
5210;DHT22;2624;48.048;11.706;2023-04-01T00:12:11;7.40;99.90
5210;DHT22;2624;48.048;11.706;2023-04-01T00:17:12;7.40;99.90
5210;DHT22;2624;48.048;11.706;2023-04-01T00:22:16;7.30;99.90
5210;DHT22;2624;48.048;11.706;2023-04-01T00:27:18;7.40;99.90
5210;DHT22;2624;48.048;11.706;2023-04-01T00:32:19;7.40;99.90
5210;DHT22;2624;48.048;11.706;2023-04-01T00:37:22;7.30;99.90
5210;DHT22;2624;48.048;11.706;2023-04-01T00:42:25;7.30;99.90
5210;DHT22;2624;48.048;11.706;2023-04-01T00:47:27;7.20;99.90
5210;DHT22;2624;48.048;11.706;2023-04-01T00:52:30;7.20;99.90
5210;DHT22;2624;48.048;11.706;2023-04-01T00:57:35;7.20;99.90
5210;DHT22;2624;48.048;11.706;2023-04-01T01:02:38;7.20;99.90
5210;DHT22;2624;48.048;11.706;2023-04-01T01:07:47;7.20;99.90
5210;DHT22;2624;48.048;11.706;2023-04-01T01:12:58;7.30;99.90
5210;DHT22;2624;48.048;11.706;2023-04-01T01:18:06;7.20;99.90
5210;DHT22;2624;48.048;11.706;2023-04-01T01:23:34;7.20;99.90
5210;DHT22;2624;48.048;11.706;2023-04-01T01:28:46;7.20;99.90
5210;DHT22;2624;48.048;11.706;2023-04-01T01:34:00;7.30;99.90
5210;DHT22;2624;48.048;11.706;2023-04-01T01:39:08;7.20;99.90
5210;DHT22;2624;48.048;11.706;2023-04-01T01:44:12;7.20;99.90
5210;DHT22;2624;48.048;11.706;2023-04-01T01:49:16;7.20;99.90
5210;DHT22;2624;48.048;11.706;2023-04-01T01:54:20;7.20;99.90
5210;DHT22;2624;48.048;11.706;2023-04-01T01:59:24;7.20;99.90
5210;DHT22;2624;48.048;11.706;2023-04-01T02:04:26;7.20;99.90
5210;DHT22;2624;48.048;11.706;2023-04-01T02:09:30;7.20;99.90
5210;DHT22;2624;48.048;11.706;2023-04-01T02:14:39;7.20;99.90
5210;DHT22;2624;48.048;11.706;2023-04-01T02:19:47;7.20;99.90
5210;DHT22;2624;48.048;11.706;2023-04-01T02:24:53;7.20;99.90
5210;DHT22;2624;48.048;11.706;2023-04-01T02:29:56;7.20;99.90
5210;DHT22;2624;48.048;11.706;2023-04-01T02:34:58;7.20;99.90
5210;DHT22;2624;48.048;11.706;2023-04-01T02:40:06;7.20;99.90
5210;DHT22;2624;48.048;11.706;2023-04-01T02:45:10;7.20;99.90
5210;DHT22;2624;48.048;11.706;2023-04-01T02:50:12;7.20;99.90
5210;DHT22;2624;48.048;11.706;2023-04-01T02:55:15;7.10;99.90
5210;DHT22;2624;48.048;11.706;2023-04-01T03:00:17;7.10;99.90
5210;DHT22;2624;48.048;11.706;2023-04-01T03:05:19;7.10;99.90
5210;DHT22;2624;48.048;11.706;2023-04-01T03:10:22;7.10;99.90
5210;DHT22;2624;48.048;11.706;2023-04-01T03:15:24;7.10;99.90
5210;DHT22;2624;48.048;11.706;2023-04-01T03:20:26;7.00;99.90
5210;DHT22;2624;48.048;11.706;2023-04-01T03:25:29;7.00;99.90
5210;DHT22;2624;48.048;11.706;2023-04-01T03:30:31;7.00;99.90
5210;DHT22;2624;48.048;11.706;2023-04-01T03:35:32;7.00;99.90
5210;DHT22;2624;48.048;11.706;2023-04-01T03:40:38;7.00;99.90
5210;DHT22;2624;48.048;11.706;2023-04-01T03:45:44;6.90;99.90
5210;DHT22;2624;48.048;11.706;2023-04-01T03:50:46;7.00;99.90
5210;DHT22;2624;48.048;11.706;2023-04-01T03:55:49;6.90;99.90
5210;DHT22;2624;48.048;11.706;2023-04-01T04:00:52;7.00;99.90
5210;DHT22;2624;48.048;11.706;2023-04-01T04:05:54;6.90;99.90
5210;DHT22;2624;48.048;11.706;2023-04-01T04:10:57;6.90;99.90
5210;DHT22;2624;48.048;11.706;2023-04-01T04:15:59;6.90;99.90
5210;DHT22;2624;48.048;11.706;2023-04-01T04:21:01;6.80;99.90
5210;DHT22;2624;48.048;11.706;2023-04-01T04:26:06;6.80;99.90
5210;DHT22;2624;48.048;11.706;2023-04-01T04:31:08;6.80;99.90
5210;DHT22;2624;48.048;11.706;2023-04-01T04:36:10;6.80;99.90
5210;DHT22;2624;48.048;11.706;2023-04-01T04:41:14;6.70;99.90
5210;DHT22;2624;48.048;11.706;2023-04-01T04:46:18;6.80;99.90
5210;DHT22;2624;48.048;11.706;2023-04-01T04:51:20;6.80;99.90
5210;DHT22;2624;48.048;11.706;2023-04-01T04:56:24;6.80;99.90
5210;DHT22;2624;48.048;11.706;2023-04-01T05:01:26;6.80;99.90
5210;DHT22;2624;48.048;11.706;2023-04-01T05:06:28;6.80;99.90
5210;DHT22;2624;48.048;11.706;2023-04-01T05:11:33;6.80;99.90
5210;DHT22;2624;48.048;11.706;2023-04-01T05:16:35;6.80;99.90
5210;DHT22;2624;48.048;11.706;2023-04-01T05:21:37;6.80;99.90
5210;DHT22;2624;48.048;11.706;2023-04-01T05:26:40;6.80;99.90
5210;DHT22;2624;48.048;11.706;2023-04-01T05:31:41;6.80;99.90
5210;DHT22;2624;48.048;11.706;2023-04-01T05:36:43;6.80;99.90
5210;DHT22;2624;48.048;11.706;2023-04-01T05:41:47;6.80;99.90
5210;DHT22;2624;48.048;11.706;2023-04-01T05:46:48;6.80;99.90
5210;DHT22;2624;48.048;11.706;2023-04-01T05:51:50;6.80;99.90
5210;DHT22;2624;48.048;11.706;2023-04-01T05:56:54;6.80;99.90
5210;DHT22;2624;48.048;11.706;2023-04-01T06:01:55;6.90;99.90
5210;DHT22;2624;48.048;11.706;2023-04-01T06:06:57;6.90;99.90
5210;DHT22;2624;48.048;11.706;2023-04-01T06:12:23;6.90;99.90
5210;DHT22;2624;48.048;11.706;2023-04-01T06:17:32;7.00;99.90
5210;DHT22;2624;48.048;11.706;2023-04-01T06:22:48;7.00;99.90
5210;DHT22;2624;48.048;11.706;2023-04-01T06:28:12;7.00;99.90
5210;DHT22;2624;48.048;11.706;2023-04-01T06:33:35;7.00;99.90
5210;DHT22;2624;48.048;11.706;2023-04-01T06:44:16;7.00;99.90
5210;DHT22;2624;48.048;11.706;2023-04-01T06:49:44;7.10;99.90
5210;DHT22;2624;48.048;11.706;2023-04-01T06:54:53;7.00;99.90
5210;DHT22;2624;48.048;11.706;2023-04-01T06:59:59;7.10;99.90
5210;DHT22;2624;48.048;11.706;2023-04-01T07:05:02;7.10;99.90
5210;DHT22;2624;48.048;11.706;2023-04-01T07:10:10;7.10;99.90
5210;DHT22;2624;48.048;11.706;2023-04-01T07:15:19;7.20;99.90
5210;DHT22;2624;48.048;11.706;2023-04-01T07:20:25;7.30;99.90
5210;DHT22;2624;48.048;11.706;2023-04-01T07:25:30;7.30;99.90
5210;DHT22;2624;48.048;11.706;2023-04-01T07:30:45;7.30;99.90
5210;DHT22;2624;48.048;11.706;2023-04-01T07:35:52;7.40;99.90
5210;DHT22;2624;48.048;11.706;2023-04-01T07:41:03;7.40;99.90
5210;DHT22;2624;48.048;11.706;2023-04-01T07:46:14;7.50;99.90
5210;DHT22;2624;48.048;11.706;2023-04-01T07:51:23;7.60;99.90
5210;DHT22;2624;48.048;11.706;2023-04-01T07:56:31;7.60;99.90
5210;DHT22;2624;48.048;11.706;2023-04-01T08:01:46;7.60;99.90
5210;DHT22;2624;48.048;11.706;2023-04-01T08:06:54;7.90;99.90
5210;DHT22;2624;48.048;11.706;2023-04-01T08:12:12;7.80;99.90
5210;DHT22;2624;48.048;11.706;2023-04-01T08:17:22;7.90;99.90
5210;DHT22;2624;48.048;11.706;2023-04-01T08:22:27;7.90;99.90
5210;DHT22;2624;48.048;11.706;2023-04-01T08:27:34;8.00;99.90
5210;DHT22;2624;48.048;11.706;2023-04-01T08:32:44;7.90;99.90
5210;DHT22;2624;48.048;11.706;2023-04-01T08:37:50;7.90;99.90
5210;DHT22;2624;48.048;11.706;2023-04-01T08:43:03;8.20;99.90
5210;DHT22;2624;48.048;11.706;2023-04-01T08:48:19;8.20;99.90
5210;DHT22;2624;48.048;11.706;2023-04-01T08:53:35;8.40;99.90
5210;DHT22;2624;48.048;11.706;2023-04-01T09:10:23;8.90;99.90
5210;DHT22;2624;48.048;11.706;2023-04-01T09:16:05;8.80;99.90
5210;DHT22;2624;48.048;11.706;2023-04-01T09:26:58;8.80;99.90
5210;DHT22;2624;48.048;11.706;2023-04-01T09:32:16;9.10;99.90
5210;DHT22;2624;48.048;11.706;2023-04-01T09:37:34;9.20;99.90
5210;DHT22;2624;48.048;11.706;2023-04-01T09:42:44;9.40;99.90
5210;DHT22;2624;48.048;11.706;2023-04-01T09:47:59;9.40;99.90
5210;DHT22;2624;48.048;11.706;2023-04-01T09:53:13;9.50;99.90
5210;DHT22;2624;48.048;11.706;2023-04-01T10:04:40;9.50;99.90
5210;DHT22;2624;48.048;11.706;2023-04-01T10:15:45;9.60;99.90
5210;DHT22;2624;48.048;11.706;2023-04-01T10:26:55;9.70;99.90
5210;DHT22;2624;48.048;11.706;2023-04-01T10:32:36;9.80;99.90
5210;DHT22;2624;48.048;11.706;2023-04-01T10:38:19;9.70;99.90
5210;DHT22;2624;48.048;11.706;2023-04-01T10:43:59;9.70;99.90
5210;DHT22;2624;48.048;11.706;2023-04-01T10:54:50;9.70;99.90
5210;DHT22;2624;48.048;11.706;2023-04-01T11:00:26;9.90;99.90
5210;DHT22;2624;48.048;11.706;2023-04-01T11:06:20;9.70;99.90
5210;DHT22;2624;48.048;11.706;2023-04-01T11:11:55;9.70;99.90
5210;DHT22;2624;48.048;11.706;2023-04-01T11:22:51;9.70;99.90
5210;DHT22;2624;48.048;11.706;2023-04-01T11:28:16;9.60;99.90
5210;DHT22;2624;48.048;11.706;2023-04-01T11:33:27;9.60;99.90
5210;DHT22;2624;48.048;11.706;2023-04-01T11:38:49;9.60;99.90
5210;DHT22;2624;48.048;11.706;2023-04-01T11:44:10;9.60;99.90
5210;DHT22;2624;48.048;11.706;2023-04-01T11:49:37;9.70;99.90
5210;DHT22;2624;48.048;11.706;2023-04-01T11:55:06;9.60;99.90
5210;DHT22;2624;48.048;11.706;2023-04-01T12:00:21;9.70;99.90
5210;DHT22;2624;48.048;11.706;2023-04-01T12:05:38;9.60;99.90
5210;DHT22;2624;48.048;11.706;2023-04-01T12:10:49;9.60;99.90
5210;DHT22;2624;48.048;11.706;2023-04-01T12:16:04;9.70;99.90
5210;DHT22;2624;48.048;11.706;2023-04-01T12:21:20;9.50;99.90
5210;DHT22;2624;48.048;11.706;2023-04-01T12:26:36;9.50;99.90
5210;DHT22;2624;48.048;11.706;2023-04-01T12:31:47;9.40;99.90
5210;DHT22;2624;48.048;11.706;2023-04-01T12:36:59;9.40;99.90
5210;DHT22;2624;48.048;11.706;2023-04-01T12:42:13;9.30;99.90
5210;DHT22;2624;48.048;11.706;2023-04-01T12:53:16;9.10;99.90
5210;DHT22;2624;48.048;11.706;2023-04-01T12:58:41;9.10;99.90
5210;DHT22;2624;48.048;11.706;2023-04-01T13:04:20;9.00;99.90
5210;DHT22;2624;48.048;11.706;2023-04-01T13:09:36;8.90;99.90
5210;DHT22;2624;48.048;11.706;2023-04-01T13:15:06;8.90;99.90
5210;DHT22;2624;48.048;11.706;2023-04-01T13:20:16;8.30;99.90
5210;DHT22;2624;48.048;11.706;2023-04-01T13:25:25;8.20;99.90
5210;DHT22;2624;48.048;11.706;2023-04-01T13:30:33;8.20;99.90
5210;DHT22;2624;48.048;11.706;2023-04-01T13:35:42;8.20;99.90
5210;DHT22;2624;48.048;11.706;2023-04-01T13:40:53;8.00;99.90
5210;DHT22;2624;48.048;11.706;2023-04-01T13:46:17;8.10;99.90
5210;DHT22;2624;48.048;11.706;2023-04-01T13:57:06;8.00;99.90
5210;DHT22;2624;48.048;11.706;2023-04-01T14:02:40;8.20;99.90
5210;DHT22;2624;48.048;11.706;2023-04-01T14:07:50;8.30;99.90
5210;DHT22;2624;48.048;11.706;2023-04-01T14:13:00;8.40;99.90
5210;DHT22;2624;48.048;11.706;2023-04-01T14:18:29;8.40;99.90
5210;DHT22;2624;48.048;11.706;2023-04-01T14:23:45;8.50;99.90
5210;DHT22;2624;48.048;11.706;2023-04-01T14:28:56;8.50;99.90
5210;DHT22;2624;48.048;11.706;2023-04-01T14:34:09;8.50;99.90
5210;DHT22;2624;48.048;11.706;2023-04-01T14:39:26;8.40;99.90
5210;DHT22;2624;48.048;11.706;2023-04-01T14:44:50;8.40;99.90
5210;DHT22;2624;48.048;11.706;2023-04-01T14:50:06;8.40;99.90
5210;DHT22;2624;48.048;11.706;2023-04-01T14:55:25;8.40;99.90
5210;DHT22;2624;48.048;11.706;2023-04-01T15:00:50;8.40;99.90
5210;DHT22;2624;48.048;11.706;2023-04-01T15:06:10;8.40;99.90
5210;DHT22;2624;48.048;11.706;2023-04-01T15:11:25;8.40;99.90
5210;DHT22;2624;48.048;11.706;2023-04-01T15:16:34;8.40;99.90
5210;DHT22;2624;48.048;11.706;2023-04-01T15:27:29;8.40;99.90
5210;DHT22;2624;48.048;11.706;2023-04-01T15:32:45;8.40;99.90
5210;DHT22;2624;48.048;11.706;2023-04-01T15:37:53;8.40;99.90
5210;DHT22;2624;48.048;11.706;2023-04-01T15:43:08;8.40;99.90
5210;DHT22;2624;48.048;11.706;2023-04-01T15:48:26;8.40;99.90
5210;DHT22;2624;48.048;11.706;2023-04-01T15:53:49;8.40;99.90
5210;DHT22;2624;48.048;11.706;2023-04-01T15:59:02;8.50;99.90
5210;DHT22;2624;48.048;11.706;2023-04-01T16:04:22;8.40;99.90
5210;DHT22;2624;48.048;11.706;2023-04-01T16:09:46;8.50;99.90
5210;DHT22;2624;48.048;11.706;2023-04-01T16:15:03;8.50;99.90
5210;DHT22;2624;48.048;11.706;2023-04-01T16:20:18;8.50;99.90
5210;DHT22;2624;48.048;11.706;2023-04-01T16:25:29;8.50;99.90
5210;DHT22;2624;48.048;11.706;2023-04-01T16:30:37;8.40;99.90
5210;DHT22;2624;48.048;11.706;2023-04-01T16:35:46;8.40;99.90
5210;DHT22;2624;48.048;11.706;2023-04-01T16:40:58;8.40;99.90
5210;DHT22;2624;48.048;11.706;2023-04-01T16:46:27;8.40;99.90
5210;DHT22;2624;48.048;11.706;2023-04-01T16:51:40;8.40;99.90
5210;DHT22;2624;48.048;11.706;2023-04-01T16:56:46;8.40;99.90
5210;DHT22;2624;48.048;11.706;2023-04-01T17:01:53;8.40;99.90
5210;DHT22;2624;48.048;11.706;2023-04-01T17:07:01;8.30;99.90
5210;DHT22;2624;48.048;11.706;2023-04-01T17:12:09;8.30;99.90
5210;DHT22;2624;48.048;11.706;2023-04-01T17:17:26;8.30;99.90
5210;DHT22;2624;48.048;11.706;2023-04-01T17:22:34;8.30;99.90
5210;DHT22;2624;48.048;11.706;2023-04-01T17:27:44;8.30;99.90
5210;DHT22;2624;48.048;11.706;2023-04-01T17:33:06;8.30;99.90
5210;DHT22;2624;48.048;11.706;2023-04-01T17:38:19;8.30;99.90
5210;DHT22;2624;48.048;11.706;2023-04-01T17:43:35;8.30;99.90
5210;DHT22;2624;48.048;11.706;2023-04-01T17:48:49;8.20;99.90
5210;DHT22;2624;48.048;11.706;2023-04-01T17:53:59;8.20;99.90
5210;DHT22;2624;48.048;11.706;2023-04-01T17:59:10;8.20;99.90
5210;DHT22;2624;48.048;11.706;2023-04-01T18:09:50;8.20;99.90
5210;DHT22;2624;48.048;11.706;2023-04-01T18:20:40;8.20;99.90
5210;DHT22;2624;48.048;11.706;2023-04-01T18:25:47;8.20;99.90
5210;DHT22;2624;48.048;11.706;2023-04-01T18:30:52;8.20;99.90
5210;DHT22;2624;48.048;11.706;2023-04-01T18:36:07;8.10;99.90
5210;DHT22;2624;48.048;11.706;2023-04-01T18:41:15;8.10;99.90
5210;DHT22;2624;48.048;11.706;2023-04-01T18:46:22;8.10;99.90
5210;DHT22;2624;48.048;11.706;2023-04-01T18:51:39;8.10;99.90
5210;DHT22;2624;48.048;11.706;2023-04-01T18:56:44;8.10;99.90
5210;DHT22;2624;48.048;11.706;2023-04-01T19:01:52;8.10;99.90
5210;DHT22;2624;48.048;11.706;2023-04-01T19:07:00;8.00;99.90
5210;DHT22;2624;48.048;11.706;2023-04-01T19:12:25;8.00;99.90
5210;DHT22;2624;48.048;11.706;2023-04-01T19:17:41;7.90;99.90
5210;DHT22;2624;48.048;11.706;2023-04-01T19:23:17;7.90;99.90
5210;DHT22;2624;48.048;11.706;2023-04-01T19:28:34;7.90;99.90
5210;DHT22;2624;48.048;11.706;2023-04-01T19:33:50;7.90;99.90
5210;DHT22;2624;48.048;11.706;2023-04-01T19:39:00;7.90;99.90
5210;DHT22;2624;48.048;11.706;2023-04-01T19:44:23;7.80;99.90
5210;DHT22;2624;48.048;11.706;2023-04-01T19:49:46;7.80;99.90
5210;DHT22;2624;48.048;11.706;2023-04-01T19:54:53;7.80;99.90
5210;DHT22;2624;48.048;11.706;2023-04-01T20:00:02;7.80;99.90
5210;DHT22;2624;48.048;11.706;2023-04-01T20:05:22;7.80;99.90
5210;DHT22;2624;48.048;11.706;2023-04-01T20:10:32;7.80;99.90
5210;DHT22;2624;48.048;11.706;2023-04-01T20:15:38;7.80;99.90
5210;DHT22;2624;48.048;11.706;2023-04-01T20:20:53;7.80;99.90
5210;DHT22;2624;48.048;11.706;2023-04-01T20:26:01;7.70;99.90
5210;DHT22;2624;48.048;11.706;2023-04-01T20:31:23;7.80;99.90
5210;DHT22;2624;48.048;11.706;2023-04-01T20:36:31;7.70;99.90
5210;DHT22;2624;48.048;11.706;2023-04-01T20:41:44;7.70;99.90
5210;DHT22;2624;48.048;11.706;2023-04-01T20:46:56;7.70;99.90
5210;DHT22;2624;48.048;11.706;2023-04-01T20:52:20;7.60;99.90
5210;DHT22;2624;48.048;11.706;2023-04-01T20:57:32;7.70;99.90
5210;DHT22;2624;48.048;11.706;2023-04-01T21:02:48;7.60;99.90
5210;DHT22;2624;48.048;11.706;2023-04-01T21:07:56;7.60;99.90
5210;DHT22;2624;48.048;11.706;2023-04-01T21:13:11;7.60;99.90
5210;DHT22;2624;48.048;11.706;2023-04-01T21:23:56;7.60;99.90
5210;DHT22;2624;48.048;11.706;2023-04-01T21:29:36;7.60;99.90
5210;DHT22;2624;48.048;11.706;2023-04-01T21:34:43;7.50;99.90
5210;DHT22;2624;48.048;11.706;2023-04-01T21:45:34;7.50;99.90
5210;DHT22;2624;48.048;11.706;2023-04-01T21:50:46;7.50;99.90
5210;DHT22;2624;48.048;11.706;2023-04-01T21:56:11;7.50;99.90
5210;DHT22;2624;48.048;11.706;2023-04-01T22:01:33;7.50;99.90
5210;DHT22;2624;48.048;11.706;2023-04-01T22:06:42;7.50;99.90
5210;DHT22;2624;48.048;11.706;2023-04-01T22:11:52;7.50;99.90
5210;DHT22;2624;48.048;11.706;2023-04-01T22:17:01;7.50;99.90
5210;DHT22;2624;48.048;11.706;2023-04-01T22:22:11;7.50;99.90
5210;DHT22;2624;48.048;11.706;2023-04-01T22:27:21;7.50;99.90
5210;DHT22;2624;48.048;11.706;2023-04-01T22:32:32;7.50;99.90
5210;DHT22;2624;48.048;11.706;2023-04-01T22:37:43;7.50;99.90
5210;DHT22;2624;48.048;11.706;2023-04-01T22:42:48;7.50;99.90
5210;DHT22;2624;48.048;11.706;2023-04-01T22:47:57;7.50;99.90
5210;DHT22;2624;48.048;11.706;2023-04-01T22:53:06;7.40;99.90
5210;DHT22;2624;48.048;11.706;2023-04-01T22:58:12;7.40;99.90
5210;DHT22;2624;48.048;11.706;2023-04-01T23:03:20;7.40;99.90
5210;DHT22;2624;48.048;11.706;2023-04-01T23:08:41;7.40;99.90
5210;DHT22;2624;48.048;11.706;2023-04-01T23:13:50;7.40;99.90
5210;DHT22;2624;48.048;11.706;2023-04-01T23:18:58;7.40;99.90
5210;DHT22;2624;48.048;11.706;2023-04-01T23:24:11;7.40;99.90
5210;DHT22;2624;48.048;11.706;2023-04-01T23:29:17;7.40;99.90
5210;DHT22;2624;48.048;11.706;2023-04-01T23:34:28;7.40;99.90
5210;DHT22;2624;48.048;11.706;2023-04-01T23:39:33;7.40;99.90
5210;DHT22;2624;48.048;11.706;2023-04-01T23:44:36;7.40;99.90
5210;DHT22;2624;48.048;11.706;2023-04-01T23:49:41;7.40;99.90
5210;DHT22;2624;48.048;11.706;2023-04-01T23:54:50;7.30;99.90
